sensor_id;sensor_type;location;lat;lon;timestamp;pressure;altitude;pressure_sealevel;temperature;humidity
64967;BME280;51710;38.732;-121.358;2023-04-23T00:01:07;100583.59;;;28.66;32.78
64967;BME280;51710;38.732;-121.358;2023-04-23T00:03:35;100581.69;;;28.62;33.42
64967;BME280;51710;38.732;-121.358;2023-04-23T00:06:05;100569.91;;;28.61;33.26
64967;BME280;51710;38.732;-121.358;2023-04-23T00:08:42;100574.31;;;28.57;32.94
64967;BME280;51710;38.732;-121.358;2023-04-23T00:11:08;100582.53;;;28.52;32.91
64967;BME280;51710;38.732;-121.358;2023-04-23T00:13:35;100567.19;;;28.56;33.18
64967;BME280;51710;38.732;-121.358;2023-04-23T00:16:02;100572.66;;;28.56;33.31
64967;BME280;51710;38.732;-121.358;2023-04-23T00:18:28;100561.41;;;28.58;33.59
64967;BME280;51710;38.732;-121.358;2023-04-23T00:20:54;100569.91;;;28.61;33.00
64967;BME280;51710;38.732;-121.358;2023-04-23T00:23:22;100561.13;;;28.59;33.17
64967;BME280;51710;38.732;-121.358;2023-04-23T00:25:48;100562.22;;;28.63;33.11
64967;BME280;51710;38.732;-121.358;2023-04-23T00:28:14;100557.00;;;28.67;32.95
64967;BME280;51710;38.732;-121.358;2023-04-23T00:30:41;100560.56;;;28.67;33.67
64967;BME280;51710;38.732;-121.358;2023-04-23T00:33:07;100550.69;;;28.66;32.99
64967;BME280;51710;38.732;-121.358;2023-04-23T00:35:33;100552.66;;;28.61;32.73
64967;BME280;51710;38.732;-121.358;2023-04-23T00:37:59;100548.28;;;28.55;33.13
64967;BME280;51710;38.732;-121.358;2023-04-23T00:40:26;100553.50;;;28.51;33.74
64967;BME280;51710;38.732;-121.358;2023-04-23T00:42:52;100542.53;;;28.51;33.45
64967;BME280;51710;38.732;-121.358;2023-04-23T00:45:19;100545.81;;;28.53;33.54
64967;BME280;51710;38.732;-121.358;2023-04-23T00:47:45;100541.41;;;28.47;34.05
64967;BME280;51710;38.732;-121.358;2023-04-23T00:50:12;100537.63;;;28.38;34.03
64967;BME280;51710;38.732;-121.358;2023-04-23T00:52:38;100544.22;;;28.32;33.93
64967;BME280;51710;38.732;-121.358;2023-04-23T00:55:08;100539.81;;;28.26;34.32
64967;BME280;51710;38.732;-121.358;2023-04-23T00:57:35;100536.00;;;28.22;33.97
64967;BME280;51710;38.732;-121.358;2023-04-23T01:00:04;100537.66;;;28.18;33.77
64967;BME280;51710;38.732;-121.358;2023-04-23T01:02:33;100528.34;;;28.14;34.23
64967;BME280;51710;38.732;-121.358;2023-04-23T01:05:03;100530.81;;;28.11;34.64
64967;BME280;51710;38.732;-121.358;2023-04-23T01:07:31;100524.28;;;28.07;34.54
64967;BME280;51710;38.732;-121.358;2023-04-23T01:09:59;100519.88;;;28.06;35.20
64967;BME280;51710;38.732;-121.358;2023-04-23T01:12:25;100522.06;;;28.04;34.77
64967;BME280;51710;38.732;-121.358;2023-04-23T01:14:52;100523.19;;;28.03;34.14
64967;BME280;51710;38.732;-121.358;2023-04-23T01:17:18;100516.88;;;28.02;34.76
64967;BME280;51710;38.732;-121.358;2023-04-23T01:19:45;100513.59;;;28.00;35.42
64967;BME280;51710;38.732;-121.358;2023-04-23T01:22:12;100515.25;;;27.96;36.00
64967;BME280;51710;38.732;-121.358;2023-04-23T01:24:40;100519.03;;;27.90;36.76
64967;BME280;51710;38.732;-121.358;2023-04-23T01:27:08;100514.13;;;27.82;37.20
64967;BME280;51710;38.732;-121.358;2023-04-23T01:29:35;100509.19;;;27.74;37.00
64967;BME280;51710;38.732;-121.358;2023-04-23T01:32:02;100515.25;;;27.71;37.21
64967;BME280;51710;38.732;-121.358;2023-04-23T01:34:32;100504.56;;;27.64;38.26
64967;BME280;51710;38.732;-121.358;2023-04-23T01:36:59;100505.38;;;27.60;38.25
64967;BME280;51710;38.732;-121.358;2023-04-23T01:39:27;100504.31;;;27.56;38.80
64967;BME280;51710;38.732;-121.358;2023-04-23T01:41:53;100508.13;;;27.50;38.38
64967;BME280;51710;38.732;-121.358;2023-04-23T01:44:19;100503.75;;;27.44;38.43
64967;BME280;51710;38.732;-121.358;2023-04-23T01:46:45;100499.91;;;27.40;38.66
64967;BME280;51710;38.732;-121.358;2023-04-23T01:49:12;100501.00;;;27.34;38.12
64967;BME280;51710;38.732;-121.358;2023-04-23T01:51:38;100499.91;;;27.30;38.44
64967;BME280;51710;38.732;-121.358;2023-04-23T01:54:05;100496.59;;;27.23;38.13
64967;BME280;51710;38.732;-121.358;2023-04-23T01:56:31;100496.59;;;27.18;37.77
64967;BME280;51710;38.732;-121.358;2023-04-23T01:58:59;100501.22;;;27.12;37.40
64967;BME280;51710;38.732;-121.358;2023-04-23T02:01:40;100504.75;;;27.08;37.59
64967;BME280;51710;38.732;-121.358;2023-04-23T02:04:07;100503.66;;;26.99;38.01
64967;BME280;51710;38.732;-121.358;2023-04-23T02:06:34;100495.41;;;26.84;38.06
64967;BME280;51710;38.732;-121.358;2023-04-23T02:09:00;100502.25;;;26.76;38.19
64967;BME280;51710;38.732;-121.358;2023-04-23T02:11:27;100511.22;;;26.72;38.35
64967;BME280;51710;38.732;-121.358;2023-04-23T02:13:53;100507.94;;;26.70;38.96
64967;BME280;51710;38.732;-121.358;2023-04-23T02:16:19;100505.69;;;26.61;39.63
64967;BME280;51710;38.732;-121.358;2023-04-23T02:18:45;100509.75;;;26.54;40.47
64967;BME280;51710;38.732;-121.358;2023-04-23T02:21:12;100509.44;;;26.45;41.94
64967;BME280;51710;38.732;-121.358;2023-04-23T02:23:38;100514.31;;;26.33;42.76
64967;BME280;51710;38.732;-121.358;2023-04-23T02:26:04;100510.97;;;26.21;43.45
64967;BME280;51710;38.732;-121.358;2023-04-23T02:28:30;100507.94;;;26.13;43.83
64967;BME280;51710;38.732;-121.358;2023-04-23T02:30:57;100510.91;;;26.06;44.33
64967;BME280;51710;38.732;-121.358;2023-04-23T02:33:23;100519.53;;;25.98;44.63
64967;BME280;51710;38.732;-121.358;2023-04-23T02:35:50;100517.88;;;25.92;44.29
64967;BME280;51710;38.732;-121.358;2023-04-23T02:38:16;100516.44;;;25.85;44.44
64967;BME280;51710;38.732;-121.358;2023-04-23T02:40:43;100526.47;;;25.74;44.90
64967;BME280;51710;38.732;-121.358;2023-04-23T02:43:09;100520.09;;;25.64;45.03
64967;BME280;51710;38.732;-121.358;2023-04-23T02:45:35;100520.03;;;25.53;45.42
64967;BME280;51710;38.732;-121.358;2023-04-23T02:48:01;100524.03;;;25.46;45.21
64967;BME280;51710;38.732;-121.358;2023-04-23T02:50:30;100519.63;;;25.40;45.70
64967;BME280;51710;38.732;-121.358;2023-04-23T02:52:56;100510.28;;;25.36;45.89
64967;BME280;51710;38.732;-121.358;2023-04-23T02:55:22;100515.66;;;25.26;46.06
64967;BME280;51710;38.732;-121.358;2023-04-23T02:57:50;100516.09;;;25.18;46.26
64967;BME280;51710;38.732;-121.358;2023-04-23T03:00:16;100513.03;;;25.09;46.14
64967;BME280;51710;38.732;-121.358;2023-04-23T03:02:43;100519.25;;;25.05;46.39
64967;BME280;51710;38.732;-121.358;2023-04-23T03:05:09;100515.91;;;24.98;46.52
64967;BME280;51710;38.732;-121.358;2023-04-23T03:07:35;100529.47;;;24.93;46.64
64967;BME280;51710;38.732;-121.358;2023-04-23T03:10:02;100525.03;;;24.87;46.69
64967;BME280;51710;38.732;-121.358;2023-04-23T03:12:28;100523.34;;;24.81;46.64
64967;BME280;51710;38.732;-121.358;2023-04-23T03:14:54;100530.06;;;24.73;46.77
64967;BME280;51710;38.732;-121.358;2023-04-23T03:17:20;100529.66;;;24.65;46.82
64967;BME280;51710;38.732;-121.358;2023-04-23T03:19:46;100527.13;;;24.58;46.99
64967;BME280;51710;38.732;-121.358;2023-04-23T03:22:13;100532.50;;;24.53;47.20
64967;BME280;51710;38.732;-121.358;2023-04-23T03:24:39;100528.66;;;24.49;47.59
64967;BME280;51710;38.732;-121.358;2023-04-23T03:27:06;100535.91;;;24.43;48.01
64967;BME280;51710;38.732;-121.358;2023-04-23T03:29:32;100540.16;;;24.34;47.64
64967;BME280;51710;38.732;-121.358;2023-04-23T03:31:58;100535.72;;;24.28;47.69
64967;BME280;51710;38.732;-121.358;2023-04-23T03:34:24;100533.75;;;24.24;47.94
64967;BME280;51710;38.732;-121.358;2023-04-23T03:36:51;100532.28;;;24.16;47.95
64967;BME280;51710;38.732;-121.358;2023-04-23T03:39:17;100532.13;;;24.06;48.69
64967;BME280;51710;38.732;-121.358;2023-04-23T03:41:43;100528.13;;;23.97;49.02
64967;BME280;51710;38.732;-121.358;2023-04-23T03:44:10;100537.06;;;23.93;48.62
64967;BME280;51710;38.732;-121.358;2023-04-23T03:46:36;100533.75;;;23.91;48.71
64967;BME280;51710;38.732;-121.358;2023-04-23T03:49:02;100526.94;;;23.88;48.93
64967;BME280;51710;38.732;-121.358;2023-04-23T03:51:29;100537.75;;;23.83;49.10
64967;BME280;51710;38.732;-121.358;2023-04-23T03:53:56;100535.50;;;23.80;49.35
64967;BME280;51710;38.732;-121.358;2023-04-23T03:56:22;100537.09;;;23.76;48.98
64967;BME280;51710;38.732;-121.358;2023-04-23T03:58:48;100540.28;;;23.73;48.96
64967;BME280;51710;38.732;-121.358;2023-04-23T04:01:14;100545.38;;;23.70;49.47
64967;BME280;51710;38.732;-121.358;2023-04-23T04:03:41;100533.94;;;23.68;49.49
64967;BME280;51710;38.732;-121.358;2023-04-23T04:06:07;100535.50;;;23.64;49.65
64967;BME280;51710;38.732;-121.358;2023-04-23T04:08:34;100542.75;;;23.58;49.55
64967;BME280;51710;38.732;-121.358;2023-04-23T04:11:00;100543.97;;;23.51;49.98
64967;BME280;51710;38.732;-121.358;2023-04-23T04:13:26;100549.59;;;23.44;50.14
64967;BME280;51710;38.732;-121.358;2023-04-23T04:15:53;100559.19;;;23.35;50.17
64967;BME280;51710;38.732;-121.358;2023-04-23T04:18:19;100556.41;;;23.30;50.55
64967;BME280;51710;38.732;-121.358;2023-04-23T04:20:45;100554.06;;;23.22;50.58
64967;BME280;51710;38.732;-121.358;2023-04-23T04:23:12;100560.69;;;23.14;50.78
64967;BME280;51710;38.732;-121.358;2023-04-23T04:25:38;100566.75;;;23.05;51.14
64967;BME280;51710;38.732;-121.358;2023-04-23T04:28:06;100567.63;;;22.94;51.47
64967;BME280;51710;38.732;-121.358;2023-04-23T04:30:37;100567.44;;;22.84;51.54
64967;BME280;51710;38.732;-121.358;2023-04-23T04:33:04;100579.38;;;22.71;51.94
64967;BME280;51710;38.732;-121.358;2023-04-23T04:35:30;100575.38;;;22.62;52.21
64967;BME280;51710;38.732;-121.358;2023-04-23T04:37:56;100569.84;;;22.57;52.38
64967;BME280;51710;38.732;-121.358;2023-04-23T04:40:23;100575.16;;;22.52;52.34
64967;BME280;51710;38.732;-121.358;2023-04-23T04:42:51;100577.75;;;22.47;52.45
64967;BME280;51710;38.732;-121.358;2023-04-23T04:45:17;100575.72;;;22.43;52.53
64967;BME280;51710;38.732;-121.358;2023-04-23T04:47:44;100575.38;;;22.39;52.62
64967;BME280;51710;38.732;-121.358;2023-04-23T04:50:11;100577.16;;;22.33;52.69
64967;BME280;51710;38.732;-121.358;2023-04-23T04:52:38;100569.97;;;22.27;52.68
64967;BME280;51710;38.732;-121.358;2023-04-23T04:55:04;100576.94;;;22.23;52.64
64967;BME280;51710;38.732;-121.358;2023-04-23T04:57:31;100569.75;;;22.17;52.97
64967;BME280;51710;38.732;-121.358;2023-04-23T05:00:00;100567.97;;;22.11;52.79
64967;BME280;51710;38.732;-121.358;2023-04-23T05:02:27;100575.16;;;22.06;52.97
64967;BME280;51710;38.732;-121.358;2023-04-23T05:04:53;100568.22;;;21.98;53.21
64967;BME280;51710;38.732;-121.358;2023-04-23T05:07:19;100570.78;;;21.93;53.24
64967;BME280;51710;38.732;-121.358;2023-04-23T05:09:45;100564.19;;;21.89;53.21
64967;BME280;51710;38.732;-121.358;2023-04-23T05:12:12;100572.22;;;21.84;53.60
64967;BME280;51710;38.732;-121.358;2023-04-23T05:14:38;100571.03;;;21.80;53.56
64967;BME280;51710;38.732;-121.358;2023-04-23T05:17:04;100572.31;;;21.78;53.56
64967;BME280;51710;38.732;-121.358;2023-04-23T05:19:30;100563.22;;;21.72;53.69
64967;BME280;51710;38.732;-121.358;2023-04-23T05:21:57;100569.09;;;21.69;53.77
64967;BME280;51710;38.732;-121.358;2023-04-23T05:24:23;100562.50;;;21.65;54.10
64967;BME280;51710;38.732;-121.358;2023-04-23T05:26:49;100568.00;;;21.59;54.30
64967;BME280;51710;38.732;-121.358;2023-04-23T05:29:15;100556.44;;;21.52;54.53
64967;BME280;51710;38.732;-121.358;2023-04-23T05:31:44;100556.53;;;21.45;54.74
64967;BME280;51710;38.732;-121.358;2023-04-23T05:34:10;100553.22;;;21.43;54.96
64967;BME280;51710;38.732;-121.358;2023-04-23T05:36:37;100561.22;;;21.38;55.16
64967;BME280;51710;38.732;-121.358;2023-04-23T05:39:04;100566.16;;;21.30;55.20
64967;BME280;51710;38.732;-121.358;2023-04-23T05:41:30;100563.19;;;21.19;55.56
64967;BME280;51710;38.732;-121.358;2023-04-23T05:43:56;100560.34;;;21.14;55.69
64967;BME280;51710;38.732;-121.358;2023-04-23T05:46:22;100552.09;;;21.09;55.85
64967;BME280;51710;38.732;-121.358;2023-04-23T05:48:49;100557.56;;;21.03;56.05
64967;BME280;51710;38.732;-121.358;2023-04-23T05:51:15;100555.31;;;21.00;56.72
64967;BME280;51710;38.732;-121.358;2023-04-23T05:53:41;100555.56;;;20.98;56.44
64967;BME280;51710;38.732;-121.358;2023-04-23T05:56:08;100549.28;;;20.98;56.25
64967;BME280;51710;38.732;-121.358;2023-04-23T05:58:34;100552.44;;;20.95;56.52
64967;BME280;51710;38.732;-121.358;2023-04-23T06:01:00;100550.66;;;20.89;56.62
64967;BME280;51710;38.732;-121.358;2023-04-23T06:03:27;100547.00;;;20.83;56.62
64967;BME280;51710;38.732;-121.358;2023-04-23T06:05:53;100550.13;;;20.80;56.92
64967;BME280;51710;38.732;-121.358;2023-04-23T06:08:20;100541.88;;;20.75;57.15
64967;BME280;51710;38.732;-121.358;2023-04-23T06:10:46;100556.34;;;20.69;57.19
64967;BME280;51710;38.732;-121.358;2023-04-23T06:13:12;100545.56;;;20.63;57.58
64967;BME280;51710;38.732;-121.358;2023-04-23T06:15:38;100542.72;;;20.58;57.67
64967;BME280;51710;38.732;-121.358;2023-04-23T06:18:05;100543.88;;;20.50;57.99
64967;BME280;51710;38.732;-121.358;2023-04-23T06:20:31;100543.69;;;20.45;58.13
64967;BME280;51710;38.732;-121.358;2023-04-23T06:22:57;100540.03;;;20.40;58.57
64967;BME280;51710;38.732;-121.358;2023-04-23T06:25:24;100549.66;;;20.36;58.18
64967;BME280;51710;38.732;-121.358;2023-04-23T06:27:50;100541.38;;;20.31;58.63
64967;BME280;51710;38.732;-121.358;2023-04-23T06:30:16;100543.09;;;20.25;58.67
64967;BME280;51710;38.732;-121.358;2023-04-23T06:32:43;100531.91;;;20.22;58.77
64967;BME280;51710;38.732;-121.358;2023-04-23T06:35:09;100536.94;;;20.18;58.98
64967;BME280;51710;38.732;-121.358;2023-04-23T06:37:36;100530.28;;;20.14;58.86
64967;BME280;51710;38.732;-121.358;2023-04-23T06:40:02;100528.25;;;20.09;59.21
64967;BME280;51710;38.732;-121.358;2023-04-23T06:42:28;100530.56;;;20.06;59.44
64967;BME280;51710;38.732;-121.358;2023-04-23T06:44:56;100524.19;;;20.00;59.07
64967;BME280;51710;38.732;-121.358;2023-04-23T06:47:24;100525.66;;;19.96;59.61
64967;BME280;51710;38.732;-121.358;2023-04-23T06:49:50;100527.19;;;19.92;59.73
64967;BME280;51710;38.732;-121.358;2023-04-23T06:52:16;100531.38;;;19.88;59.54
64967;BME280;51710;38.732;-121.358;2023-04-23T06:54:43;100533.00;;;19.89;59.42
64967;BME280;51710;38.732;-121.358;2023-04-23T06:57:09;100528.06;;;19.86;59.60
64967;BME280;51710;38.732;-121.358;2023-04-23T06:59:35;100522.28;;;19.83;59.47
64967;BME280;51710;38.732;-121.358;2023-04-23T07:02:01;100521.28;;;19.77;59.88
64967;BME280;51710;38.732;-121.358;2023-04-23T07:04:27;100522.78;;;19.73;59.99
64967;BME280;51710;38.732;-121.358;2023-04-23T07:06:54;100514.50;;;19.68;60.19
64967;BME280;51710;38.732;-121.358;2023-04-23T07:09:20;100508.94;;;19.63;60.08
64967;BME280;51710;38.732;-121.358;2023-04-23T07:11:46;100515.22;;;19.57;60.34
64967;BME280;51710;38.732;-121.358;2023-04-23T07:14:12;100514.00;;;19.53;60.59
64967;BME280;51710;38.732;-121.358;2023-04-23T07:16:39;100516.78;;;19.47;60.55
64967;BME280;51710;38.732;-121.358;2023-04-23T07:19:05;100520.09;;;19.42;60.79
64967;BME280;51710;38.732;-121.358;2023-04-23T07:21:32;100518.47;;;19.41;60.83
64967;BME280;51710;38.732;-121.358;2023-04-23T07:23:58;100523.25;;;19.39;60.70
64967;BME280;51710;38.732;-121.358;2023-04-23T07:26:33;100519.38;;;19.35;60.78
64967;BME280;51710;38.732;-121.358;2023-04-23T07:29:00;100524.75;;;19.29;61.19
64967;BME280;51710;38.732;-121.358;2023-04-23T07:31:27;100522.72;;;19.24;61.15
64967;BME280;51710;38.732;-121.358;2023-04-23T07:33:54;100528.97;;;19.18;61.17
64967;BME280;51710;38.732;-121.358;2023-04-23T07:36:21;100521.78;;;19.12;61.55
64967;BME280;51710;38.732;-121.358;2023-04-23T07:38:47;100526.16;;;19.06;61.43
64967;BME280;51710;38.732;-121.358;2023-04-23T07:41:14;100533.88;;;19.03;61.51
64967;BME280;51710;38.732;-121.358;2023-04-23T07:43:41;100528.28;;;18.98;61.66
64967;BME280;51710;38.732;-121.358;2023-04-23T07:46:07;100532.69;;;18.92;61.76
64967;BME280;51710;38.732;-121.358;2023-04-23T07:48:33;100537.91;;;18.87;62.04
64967;BME280;51710;38.732;-121.358;2023-04-23T07:51:01;100537.50;;;18.84;61.92
64967;BME280;51710;38.732;-121.358;2023-04-23T07:53:27;100541.22;;;18.83;61.89
64967;BME280;51710;38.732;-121.358;2023-04-23T07:55:54;100529.22;;;18.79;62.12
64967;BME280;51710;38.732;-121.358;2023-04-23T07:58:24;100531.53;;;18.75;62.25
64967;BME280;51710;38.732;-121.358;2023-04-23T08:00:51;100535.69;;;18.71;62.39
64967;BME280;51710;38.732;-121.358;2023-04-23T08:03:17;100530.72;;;18.68;62.32
64967;BME280;51710;38.732;-121.358;2023-04-23T08:05:43;100532.19;;;18.64;62.50
64967;BME280;51710;38.732;-121.358;2023-04-23T08:08:11;100531.16;;;18.59;62.60
64967;BME280;51710;38.732;-121.358;2023-04-23T08:10:37;100537.44;;;18.53;62.69
64967;BME280;51710;38.732;-121.358;2023-04-23T08:13:04;100527.03;;;18.50;62.79
64967;BME280;51710;38.732;-121.358;2023-04-23T08:15:30;100528.09;;;18.49;62.82
64967;BME280;51710;38.732;-121.358;2023-04-23T08:17:56;100531.41;;;18.51;62.87
64967;BME280;51710;38.732;-121.358;2023-04-23T08:20:22;100526.47;;;18.48;62.92
64967;BME280;51710;38.732;-121.358;2023-04-23T08:22:50;100528.97;;;18.43;63.05
64967;BME280;51710;38.732;-121.358;2023-04-23T08:25:18;100533.09;;;18.39;63.13
64967;BME280;51710;38.732;-121.358;2023-04-23T08:27:45;100532.69;;;18.35;63.05
64967;BME280;51710;38.732;-121.358;2023-04-23T08:30:12;100527.31;;;18.29;63.18
64967;BME280;51710;38.732;-121.358;2023-04-23T08:32:39;100535.19;;;18.24;63.36
64967;BME280;51710;38.732;-121.358;2023-04-23T08:35:05;100537.69;;;18.19;63.35
64967;BME280;51710;38.732;-121.358;2023-04-23T08:37:33;100523.22;;;18.13;63.38
64967;BME280;51710;38.732;-121.358;2023-04-23T08:40:00;100525.69;;;18.08;63.71
64967;BME280;51710;38.732;-121.358;2023-04-23T08:42:40;100533.56;;;18.03;63.74
64967;BME280;51710;38.732;-121.358;2023-04-23T08:45:09;100531.09;;;18.02;63.87
64967;BME280;51710;38.732;-121.358;2023-04-23T08:47:37;100528.00;;;17.98;64.06
64967;BME280;51710;38.732;-121.358;2023-04-23T08:50:06;100527.38;;;17.96;64.03
64967;BME280;51710;38.732;-121.358;2023-04-23T08:52:33;100528.00;;;17.91;64.11
64967;BME280;51710;38.732;-121.358;2023-04-23T08:55:06;100519.09;;;17.84;64.31
64967;BME280;51710;38.732;-121.358;2023-04-23T08:57:37;100517.84;;;17.80;64.50
64967;BME280;51710;38.732;-121.358;2023-04-23T09:00:09;100511.25;;;17.76;64.56
64967;BME280;51710;38.732;-121.358;2023-04-23T09:02:36;100510.00;;;17.72;64.70
64967;BME280;51710;38.732;-121.358;2023-04-23T09:05:05;100506.91;;;17.69;64.66
64967;BME280;51710;38.732;-121.358;2023-04-23T09:07:32;100502.75;;;17.66;64.98
64967;BME280;51710;38.732;-121.358;2023-04-23T09:10:00;100498.41;;;17.65;64.75
64967;BME280;51710;38.732;-121.358;2023-04-23T09:12:26;100496.13;;;17.62;65.00
64967;BME280;51710;38.732;-121.358;2023-04-23T09:14:53;100490.13;;;17.60;64.92
64967;BME280;51710;38.732;-121.358;2023-04-23T09:17:20;100492.19;;;17.58;64.95
64967;BME280;51710;38.732;-121.358;2023-04-23T09:19:49;100488.25;;;17.54;64.94
64967;BME280;51710;38.732;-121.358;2023-04-23T09:25:07;100477.06;;;17.51;65.14
64967;BME280;51710;38.732;-121.358;2023-04-23T09:27:33;100475.63;;;17.48;65.22
64967;BME280;51710;38.732;-121.358;2023-04-23T09:30:03;100472.31;;;17.46;65.06
64967;BME280;51710;38.732;-121.358;2023-04-23T09:32:33;100474.56;;;17.43;65.40
64967;BME280;51710;38.732;-121.358;2023-04-23T09:35:04;100476.41;;;17.42;65.26
64967;BME280;51710;38.732;-121.358;2023-04-23T09:37:31;100475.59;;;17.42;65.29
64967;BME280;51710;38.732;-121.358;2023-04-23T09:40:04;100476.84;;;17.39;65.34
64967;BME280;51710;38.732;-121.358;2023-04-23T09:42:33;100474.56;;;17.36;65.18
64967;BME280;51710;38.732;-121.358;2023-04-23T09:45:03;100480.97;;;17.35;65.33
64967;BME280;51710;38.732;-121.358;2023-04-23T09:47:33;100485.09;;;17.31;65.63
64967;BME280;51710;38.732;-121.358;2023-04-23T09:50:00;100487.19;;;17.29;65.63
64967;BME280;51710;38.732;-121.358;2023-04-23T09:52:30;100488.44;;;17.27;65.71
64967;BME280;51710;38.732;-121.358;2023-04-23T09:54:57;100492.97;;;17.26;65.69
64967;BME280;51710;38.732;-121.358;2023-04-23T09:57:24;100502.50;;;17.22;65.70
64967;BME280;51710;38.732;-121.358;2023-04-23T09:59:51;100501.69;;;17.22;66.01
64967;BME280;51710;38.732;-121.358;2023-04-23T10:02:17;100504.78;;;17.19;65.63
64967;BME280;51710;38.732;-121.358;2023-04-23T10:04:48;100517.41;;;17.18;65.69
64967;BME280;51710;38.732;-121.358;2023-04-23T10:07:17;100529.22;;;17.17;65.60
64967;BME280;51710;38.732;-121.358;2023-04-23T10:09:43;100532.94;;;17.16;65.75
64967;BME280;51710;38.732;-121.358;2023-04-23T10:12:10;100537.28;;;17.17;65.54
64967;BME280;51710;38.732;-121.358;2023-04-23T10:14:38;100549.28;;;17.15;65.49
64967;BME280;51710;38.732;-121.358;2023-04-23T10:17:05;100545.13;;;17.12;65.57
64967;BME280;51710;38.732;-121.358;2023-04-23T10:19:32;100542.22;;;17.07;65.60
64967;BME280;51710;38.732;-121.358;2023-04-23T10:22:03;100536.41;;;17.04;65.58
64967;BME280;51710;38.732;-121.358;2023-04-23T10:24:36;100533.31;;;17.00;65.89
64967;BME280;51710;38.732;-121.358;2023-04-23T10:27:10;100535.34;;;16.98;65.70
64967;BME280;51710;38.732;-121.358;2023-04-23T10:29:37;100523.16;;;16.96;65.84
64967;BME280;51710;38.732;-121.358;2023-04-23T10:32:06;100524.59;;;16.92;65.91
64967;BME280;51710;38.732;-121.358;2023-04-23T10:34:33;100521.47;;;16.88;66.13
64967;BME280;51710;38.732;-121.358;2023-04-23T10:37:01;100521.88;;;16.85;66.13
64967;BME280;51710;38.732;-121.358;2023-04-23T10:39:32;100518.78;;;16.81;66.42
64967;BME280;51710;38.732;-121.358;2023-04-23T10:42:00;100515.66;;;16.78;66.07
64967;BME280;51710;38.732;-121.358;2023-04-23T10:44:36;100509.66;;;16.76;66.44
64967;BME280;51710;38.732;-121.358;2023-04-23T10:47:03;100518.13;;;16.73;66.57
64967;BME280;51710;38.732;-121.358;2023-04-23T10:49:33;100514.19;;;16.69;66.83
64967;BME280;51710;38.732;-121.358;2023-04-23T10:54:31;100519.34;;;16.64;67.01
64967;BME280;51710;38.732;-121.358;2023-04-23T10:56:59;100522.84;;;16.64;67.24
64967;BME280;51710;38.732;-121.358;2023-04-23T10:59:27;100516.63;;;16.64;67.16
64967;BME280;51710;38.732;-121.358;2023-04-23T11:01:58;100506.53;;;16.66;67.21
64967;BME280;51710;38.732;-121.358;2023-04-23T11:04:25;100509.63;;;16.63;67.34
64967;BME280;51710;38.732;-121.358;2023-04-23T11:06:55;100511.69;;;16.61;67.40
64967;BME280;51710;38.732;-121.358;2023-04-23T11:12:02;100509.41;;;16.58;67.27
64967;BME280;51710;38.732;-121.358;2023-04-23T11:17:06;100512.09;;;16.58;67.13
64967;BME280;51710;38.732;-121.358;2023-04-23T11:19:36;100511.03;;;16.59;67.52
64967;BME280;51710;38.732;-121.358;2023-04-23T11:24:39;100522.22;;;16.62;67.24
64967;BME280;51710;38.732;-121.358;2023-04-23T11:27:17;100521.78;;;16.59;67.13
64967;BME280;51710;38.732;-121.358;2023-04-23T11:29:45;100521.16;;;16.57;67.10
64967;BME280;51710;38.732;-121.358;2023-04-23T11:32:15;100513.50;;;16.54;66.80
64967;BME280;51710;38.732;-121.358;2023-04-23T11:34:43;100507.69;;;16.50;66.97
64967;BME280;51710;38.732;-121.358;2023-04-23T11:37:10;100507.28;;;16.47;67.38
64967;BME280;51710;38.732;-121.358;2023-04-23T11:39:40;100505.56;;;16.46;67.03
64967;BME280;51710;38.732;-121.358;2023-04-23T11:42:13;100514.03;;;16.43;67.04
64967;BME280;51710;38.732;-121.358;2023-04-23T11:44:41;100503.69;;;16.40;67.23
64967;BME280;51710;38.732;-121.358;2023-04-23T11:47:11;100505.53;;;16.39;67.21
64967;BME280;51710;38.732;-121.358;2023-04-23T11:49:38;100508.44;;;16.38;67.43
64967;BME280;51710;38.732;-121.358;2023-04-23T11:52:06;100512.53;;;16.34;67.05
64967;BME280;51710;38.732;-121.358;2023-04-23T11:54:32;100512.53;;;16.34;67.17
64967;BME280;51710;38.732;-121.358;2023-04-23T11:56:59;100510.06;;;16.32;67.04
64967;BME280;51710;38.732;-121.358;2023-04-23T11:59:27;100510.25;;;16.31;67.07
64967;BME280;51710;38.732;-121.358;2023-04-23T12:01:55;100511.31;;;16.30;67.05
64967;BME280;51710;38.732;-121.358;2023-04-23T12:04:24;100512.94;;;16.31;67.05
64967;BME280;51710;38.732;-121.358;2023-04-23T12:06:55;100521.00;;;16.31;67.10
64967;BME280;51710;38.732;-121.358;2023-04-23T12:09:23;100526.59;;;16.29;66.92
64967;BME280;51710;38.732;-121.358;2023-04-23T12:11:50;100532.16;;;16.28;67.02
64967;BME280;51710;38.732;-121.358;2023-04-23T12:14:18;100533.81;;;16.29;67.02
64967;BME280;51710;38.732;-121.358;2023-04-23T12:16:47;100538.19;;;16.30;66.91
64967;BME280;51710;38.732;-121.358;2023-04-23T12:19:27;100533.44;;;16.32;66.96
64967;BME280;51710;38.732;-121.358;2023-04-23T12:21:56;100535.50;;;16.30;67.02
64967;BME280;51710;38.732;-121.358;2023-04-23T12:24:24;100535.50;;;16.30;66.73
64967;BME280;51710;38.732;-121.358;2023-04-23T12:26:52;100540.22;;;16.28;66.95
64967;BME280;51710;38.732;-121.358;2023-04-23T12:29:24;100548.69;;;16.25;66.70
64967;BME280;51710;38.732;-121.358;2023-04-23T12:31:51;100544.34;;;16.24;66.91
64967;BME280;51710;38.732;-121.358;2023-04-23T12:34:19;100544.34;;;16.24;66.99